createdAt,value
2023-07-08T00:00:13.014Z,8.70
2023-07-08T00:00:34.721Z,9.20
2023-07-08T00:01:13.753Z,7.25
2023-07-08T00:01:32.515Z,7.07
2023-07-08T00:01:46.805Z,8.05
2023-07-08T00:01:59.991Z,8.90
2023-07-08T00:02:15.048Z,8.30
2023-07-08T00:02:27.883Z,7.32
2023-07-08T00:02:41.430Z,6.97
2023-07-08T00:02:54.272Z,5.90
2023-07-08T00:03:08.052Z,6.10
2023-07-08T00:03:22.185Z,7.53
2023-07-08T00:03:34.943Z,7.88
2023-07-08T00:03:49.701Z,6.95
2023-07-08T00:04:05.175Z,6.25
2023-07-08T00:04:18.075Z,6.57
2023-07-08T00:04:30.768Z,7.00
2023-07-08T00:04:43.899Z,6.90
2023-07-08T00:04:57.985Z,6.80
2023-07-08T00:05:12.006Z,6.35
2023-07-08T00:05:28.374Z,6.57
2023-07-08T00:05:45.942Z,7.22
2023-07-08T00:05:58.604Z,8.25
2023-07-08T00:06:18.204Z,7.57
2023-07-08T00:06:30.833Z,7.22
2023-07-08T00:06:44.265Z,7.40
2023-07-08T00:06:57.614Z,7.47
2023-07-08T00:07:14.293Z,9.32
2023-07-08T00:07:28.984Z,8.85
2023-07-08T00:07:42.894Z,6.38
2023-07-08T00:07:56.040Z,6.03
2023-07-08T00:08:12.820Z,5.95
2023-07-08T00:08:25.610Z,8.60
2023-07-08T00:08:39.037Z,9.23
2023-07-08T00:08:52.672Z,8.02
2023-07-08T00:09:13.231Z,8.05
2023-07-08T00:09:27.783Z,7.03
2023-07-08T00:09:42.046Z,8.57
2023-07-08T00:09:55.408Z,8.48
2023-07-08T00:10:21.907Z,9.10
2023-07-08T00:10:34.853Z,8.07
2023-07-08T00:10:48.313Z,7.85
2023-07-08T00:11:02.700Z,10.10
2023-07-08T00:11:18.578Z,10.07
2023-07-08T00:11:31.247Z,6.97
2023-07-08T00:11:45.208Z,6.38
2023-07-08T00:11:58.447Z,6.32
2023-07-08T00:12:12.586Z,6.68
2023-07-08T00:12:28.885Z,7.07
2023-07-08T00:12:42.725Z,7.70
2023-07-08T00:12:59.341Z,8.07
2023-07-08T00:13:13.910Z,7.18
2023-07-08T00:13:27.039Z,8.75
2023-07-08T00:13:41.964Z,11.55
2023-07-08T00:13:54.981Z,9.82
2023-07-08T00:14:08.336Z,7.88
2023-07-08T00:14:21.674Z,9.80
2023-07-08T00:14:34.337Z,9.95
2023-07-08T00:14:46.953Z,8.95
2023-07-08T00:15:01.000Z,7.80
2023-07-08T00:15:13.705Z,7.72
2023-07-08T00:15:28.765Z,8.27
2023-07-08T00:15:41.739Z,8.07
2023-07-08T00:15:54.294Z,8.43
2023-07-08T00:16:11.415Z,9.57
2023-07-08T00:16:26.428Z,9.88
2023-07-08T00:16:39.313Z,7.80
2023-07-08T00:16:52.793Z,6.63
2023-07-08T00:17:11.452Z,6.63
2023-07-08T00:17:24.093Z,7.65
2023-07-08T00:17:37.127Z,8.98
2023-07-08T00:17:49.822Z,9.60
2023-07-08T00:18:10.842Z,8.48
2023-07-08T00:18:23.378Z,6.40
2023-07-08T00:18:35.913Z,6.22
2023-07-08T00:18:49.890Z,7.10
2023-07-08T00:19:02.945Z,8.73
2023-07-08T00:19:20.379Z,9.27
2023-07-08T00:19:32.946Z,11.82
2023-07-08T00:19:45.511Z,11.43
2023-07-08T00:19:58.069Z,9.88
2023-07-08T00:20:15.080Z,8.95
2023-07-08T00:20:34.509Z,8.38
2023-07-08T00:20:49.477Z,7.57
2023-07-08T00:21:02.284Z,8.77
2023-07-08T00:21:17.320Z,9.48
2023-07-08T00:21:29.976Z,8.98
2023-07-08T00:21:42.605Z,8.35
2023-07-08T00:21:55.174Z,9.13
2023-07-08T00:22:15.211Z,10.35
2023-07-08T00:22:28.806Z,9.30
2023-07-08T00:22:42.219Z,10.45
2023-07-08T00:22:54.771Z,9.32
2023-07-08T00:23:10.059Z,10.02
2023-07-08T00:23:23.180Z,10.93
2023-07-08T00:23:37.130Z,9.48
2023-07-08T00:23:51.158Z,6.90
2023-07-08T00:24:03.981Z,7.55
2023-07-08T00:24:17.572Z,6.95
2023-07-08T00:24:30.097Z,6.78
2023-07-08T00:24:43.745Z,6.60
2023-07-08T00:24:56.331Z,7.88
2023-07-08T00:25:11.082Z,8.52
2023-07-08T00:25:25.058Z,7.10
2023-07-08T00:25:38.195Z,7.30
2023-07-08T00:25:51.220Z,7.82
2023-07-08T00:26:11.450Z,8.20
2023-07-08T00:26:26.556Z,7.65
2023-07-08T00:26:39.368Z,7.28
2023-07-08T00:26:52.171Z,8.73
2023-07-08T00:27:05.218Z,8.90
2023-07-08T00:27:18.315Z,7.45
2023-07-08T00:27:30.860Z,5.82
2023-07-08T00:27:43.682Z,5.80
2023-07-08T00:27:57.299Z,7.30
2023-07-08T00:28:10.733Z,7.75
2023-07-08T00:28:23.303Z,6.53
2023-07-08T00:28:35.860Z,6.30
2023-07-08T00:28:48.422Z,7.28
2023-07-08T00:29:01.268Z,7.32
2023-07-08T00:29:17.628Z,7.45
2023-07-08T00:29:30.178Z,10.93
2023-07-08T00:29:43.781Z,10.50
2023-07-08T00:29:56.330Z,8.35
2023-07-08T00:30:20.419Z,6.38
2023-07-08T00:30:33.757Z,7.78
2023-07-08T00:30:46.738Z,7.07
2023-07-08T00:30:59.859Z,7.88
2023-07-08T00:31:12.688Z,8.30
2023-07-08T00:31:27.226Z,10.18
2023-07-08T00:31:41.265Z,8.98
2023-07-08T00:31:53.814Z,8.00
2023-07-08T00:32:11.874Z,7.40
2023-07-08T00:32:24.553Z,7.10
2023-07-08T00:32:43.046Z,7.53
2023-07-08T00:32:56.860Z,7.05
2023-07-08T00:33:09.487Z,7.03
2023-07-08T00:33:23.035Z,6.93
2023-07-08T00:33:35.828Z,7.75
2023-07-08T00:33:48.373Z,7.82
2023-07-08T00:34:04.341Z,6.72
2023-07-08T00:34:16.998Z,6.95
2023-07-08T00:34:29.571Z,7.07
2023-07-08T00:34:42.772Z,7.10
2023-07-08T00:34:55.376Z,7.70
2023-07-08T00:35:08.599Z,7.13
2023-07-08T00:35:24.505Z,7.07
2023-07-08T00:35:38.622Z,8.10
2023-07-08T00:35:51.184Z,8.70
2023-07-08T00:36:11.785Z,8.05
2023-07-08T00:36:26.154Z,6.28
2023-07-08T00:36:38.797Z,7.30
2023-07-08T00:36:52.343Z,7.90
2023-07-08T00:37:06.334Z,7.60
2023-07-08T00:37:18.902Z,6.60
2023-07-08T00:37:31.689Z,6.55
2023-07-08T00:37:44.301Z,7.05
2023-07-08T00:38:02.288Z,8.00
2023-07-08T00:38:28.096Z,7.53
2023-07-08T00:38:45.597Z,8.73
2023-07-08T00:38:59.511Z,6.72
2023-07-08T00:39:15.749Z,7.47
2023-07-08T00:39:28.323Z,8.77
2023-07-08T00:39:41.058Z,8.05
2023-07-08T00:39:53.736Z,8.20
2023-07-08T00:40:15.297Z,8.93
2023-07-08T00:40:31.073Z,7.38
2023-07-08T00:40:52.854Z,6.63
2023-07-08T00:41:12.304Z,7.22
2023-07-08T00:41:28.757Z,8.50
2023-07-08T00:41:43.609Z,7.70
2023-07-08T00:41:56.712Z,7.10
2023-07-08T00:42:25.700Z,8.02
2023-07-08T00:42:39.245Z,8.32
2023-07-08T00:42:53.610Z,8.77
2023-07-08T00:43:09.238Z,9.05
2023-07-08T00:43:29.699Z,8.45
2023-07-08T00:43:47.175Z,8.82
2023-07-08T00:44:00.908Z,8.25
2023-07-08T00:44:13.761Z,9.10
2023-07-08T00:44:26.329Z,8.18
2023-07-08T00:44:40.857Z,9.05
2023-07-08T00:44:53.805Z,9.45
2023-07-08T00:45:19.540Z,8.45
2023-07-08T00:45:53.424Z,9.07
2023-07-08T00:46:24.853Z,10.13
2023-07-08T00:46:48.440Z,9.93
2023-07-08T00:47:05.452Z,9.55
2023-07-08T00:47:18.724Z,8.82
2023-07-08T00:47:31.880Z,8.55
2023-07-08T00:47:44.776Z,8.02
2023-07-08T00:48:04.942Z,8.15
2023-07-08T00:48:24.622Z,9.27
2023-07-08T00:48:38.243Z,7.13
2023-07-08T00:48:54.205Z,7.88
2023-07-08T00:49:22.391Z,9.85
2023-07-08T00:49:40.326Z,9.07
2023-07-08T00:49:58.265Z,8.18
2023-07-08T00:50:12.702Z,7.28
2023-07-08T00:50:25.265Z,8.82
2023-07-08T00:50:37.810Z,9.13
2023-07-08T00:50:51.152Z,7.75
2023-07-08T00:51:03.765Z,7.70
2023-07-08T00:51:20.542Z,9.15
2023-07-08T00:51:33.504Z,8.32
2023-07-08T00:51:46.037Z,7.00
2023-07-08T00:52:20.548Z,7.22
2023-07-08T00:52:34.086Z,10.40
2023-07-08T00:52:46.750Z,10.25
2023-07-08T00:53:33.153Z,8.93
2023-07-08T00:53:45.668Z,8.75
2023-07-08T00:53:58.271Z,8.48
2023-07-08T00:54:13.161Z,8.95
2023-07-08T00:54:26.675Z,9.13
2023-07-08T00:54:39.189Z,8.32
2023-07-08T00:54:53.614Z,8.65
2023-07-08T00:55:08.848Z,10.38
2023-07-08T00:55:21.776Z,8.75
2023-07-08T00:55:35.806Z,7.03
2023-07-08T00:55:48.496Z,7.63
2023-07-08T00:56:03.480Z,7.95
2023-07-08T00:56:20.944Z,9.23
2023-07-08T00:56:39.994Z,8.38
2023-07-08T00:56:55.705Z,8.70
2023-07-08T00:57:08.401Z,8.32
2023-07-08T00:57:24.401Z,8.88
2023-07-08T00:57:40.320Z,9.65
2023-07-08T00:57:53.853Z,9.50
2023-07-08T00:58:06.394Z,9.25
2023-07-08T00:58:22.905Z,8.23
2023-07-08T00:58:42.384Z,8.02
2023-07-08T00:58:58.564Z,7.68
2023-07-08T00:59:16.938Z,7.60
2023-07-08T00:59:35.242Z,8.10
2023-07-08T00:59:55.424Z,9.68
2023-07-08T01:00:11.388Z,10.32
2023-07-08T01:00:24.077Z,9.52
2023-07-08T01:00:36.583Z,9.20
2023-07-08T01:00:51.093Z,8.23
2023-07-08T01:01:07.231Z,12.50
2023-07-08T01:01:20.128Z,12.85
2023-07-08T01:01:37.173Z,9.75
2023-07-08T01:01:50.646Z,8.77
2023-07-08T01:02:07.370Z,8.57
2023-07-08T01:02:23.154Z,8.95
2023-07-08T01:02:39.408Z,8.85
2023-07-08T01:02:57.781Z,8.20
2023-07-08T01:03:10.553Z,8.13
2023-07-08T01:03:25.027Z,8.73
2023-07-08T01:03:47.808Z,8.73
2023-07-08T01:04:05.385Z,8.20
2023-07-08T01:04:21.496Z,9.85
2023-07-08T01:04:43.255Z,11.35
2023-07-08T01:05:05.610Z,10.68
2023-07-08T01:05:21.000Z,9.00
2023-07-08T01:05:35.716Z,7.82
2023-07-08T01:05:49.971Z,8.13
2023-07-08T01:06:02.558Z,9.20
2023-07-08T01:06:15.365Z,9.27
2023-07-08T01:06:32.548Z,9.63
2023-07-08T01:06:48.357Z,9.63
2023-07-08T01:07:04.597Z,8.70
2023-07-08T01:07:22.526Z,7.78
2023-07-08T01:07:37.056Z,8.43
2023-07-08T01:07:52.911Z,8.82
2023-07-08T01:08:07.433Z,9.20
2023-07-08T01:08:20.113Z,9.43
2023-07-08T01:08:34.030Z,8.60
2023-07-08T01:08:47.969Z,7.85
2023-07-08T01:09:03.706Z,6.80
2023-07-08T01:09:17.007Z,7.60
2023-07-08T01:09:34.634Z,8.43
2023-07-08T01:09:47.587Z,8.55
2023-07-08T01:10:07.395Z,8.30
2023-07-08T01:10:27.870Z,8.82
2023-07-08T01:10:47.229Z,8.93
2023-07-08T01:11:03.095Z,9.43
2023-07-08T01:11:16.874Z,7.97
2023-07-08T01:11:30.255Z,8.63
2023-07-08T01:11:43.693Z,8.63
2023-07-08T01:11:58.064Z,7.03
2023-07-08T01:12:15.449Z,7.20
2023-07-08T01:12:31.836Z,7.47
2023-07-08T01:12:49.344Z,7.70
2023-07-08T01:13:05.877Z,7.45
2023-07-08T01:13:20.533Z,8.95
2023-07-08T01:13:38.671Z,9.63
2023-07-08T01:13:52.610Z,8.82
2023-07-08T01:14:08.792Z,9.00
2023-07-08T01:14:23.015Z,8.82
2023-07-08T01:14:39.592Z,7.50
2023-07-08T01:14:56.073Z,7.32
2023-07-08T01:15:10.834Z,7.70
2023-07-08T01:15:26.853Z,8.15
2023-07-08T01:15:42.829Z,8.57
2023-07-08T01:15:56.177Z,9.60
2023-07-08T01:16:10.682Z,8.68
2023-07-08T01:16:23.652Z,6.97
2023-07-08T01:16:36.638Z,7.85
2023-07-08T01:16:51.160Z,8.27
2023-07-08T01:17:04.142Z,8.50
2023-07-08T01:17:16.739Z,9.13
2023-07-08T01:17:33.609Z,8.18
2023-07-08T01:17:46.964Z,7.95
2023-07-08T01:17:59.975Z,7.97
2023-07-08T01:18:17.484Z,7.95
2023-07-08T01:18:31.407Z,7.72
2023-07-08T01:18:44.156Z,8.45
2023-07-08T01:18:57.145Z,8.50
2023-07-08T01:19:17.045Z,7.70
2023-07-08T01:19:33.482Z,7.97
2023-07-08T01:19:46.188Z,8.40
2023-07-08T01:19:59.474Z,7.93
2023-07-08T01:20:14.080Z,7.63
2023-07-08T01:20:27.860Z,7.47
2023-07-08T01:20:41.023Z,7.97
2023-07-08T01:20:57.402Z,9.25
2023-07-08T01:21:31.118Z,10.45
2023-07-08T01:21:48.046Z,9.55
2023-07-08T01:22:01.259Z,9.50
2023-07-08T01:22:13.927Z,7.95
2023-07-08T01:22:33.281Z,7.18
2023-07-08T01:22:46.233Z,8.30
2023-07-08T01:22:58.839Z,8.68
2023-07-08T01:23:12.178Z,9.00
2023-07-08T01:23:25.530Z,9.02
2023-07-08T01:23:38.494Z,9.25
2023-07-08T01:23:51.382Z,8.50
2023-07-08T01:24:06.900Z,6.57
2023-07-08T01:24:20.460Z,6.78
2023-07-08T01:24:35.970Z,7.07
2023-07-08T01:24:48.525Z,7.25
2023-07-08T01:25:04.408Z,8.18
2023-07-08T01:25:17.209Z,8.55
2023-07-08T01:25:29.849Z,7.60
2023-07-08T01:25:45.729Z,7.82
2023-07-08T01:25:58.411Z,7.30
2023-07-08T01:26:11.952Z,9.45
2023-07-08T01:26:26.948Z,10.13
2023-07-08T01:26:43.058Z,7.72
2023-07-08T01:26:55.823Z,9.13
2023-07-08T01:27:12.973Z,9.00
2023-07-08T01:27:25.608Z,7.93
2023-07-08T01:27:40.483Z,8.98
2023-07-08T01:27:56.841Z,8.77
2023-07-08T01:28:09.515Z,9.13
2023-07-08T01:28:23.387Z,9.73
2023-07-08T01:28:36.840Z,7.78
2023-07-08T01:28:49.412Z,7.80
2023-07-08T01:29:03.816Z,7.00
2023-07-08T01:29:16.995Z,6.28
2023-07-08T01:29:29.744Z,7.15
2023-07-08T01:29:42.393Z,7.25
2023-07-08T01:29:55.546Z,6.78
2023-07-08T01:30:09.181Z,6.65
2023-07-08T01:30:23.065Z,6.63
2023-07-08T01:30:36.574Z,7.43
2023-07-08T01:30:50.491Z,7.10
2023-07-08T01:31:05.782Z,6.95
2023-07-08T01:31:20.421Z,9.18
2023-07-08T01:31:33.461Z,8.38
2023-07-08T01:31:50.245Z,6.53
2023-07-08T01:32:04.443Z,6.82
2023-07-08T01:32:19.316Z,7.18
2023-07-08T01:32:34.033Z,6.85
2023-07-08T01:32:50.625Z,7.60
2023-07-08T01:33:06.640Z,7.95
2023-07-08T01:33:22.903Z,7.78
2023-07-08T01:33:36.517Z,7.55
2023-07-08T01:33:49.230Z,6.82
2023-07-08T01:34:01.894Z,7.20
2023-07-08T01:34:14.478Z,7.13
2023-07-08T01:34:27.073Z,7.28
2023-07-08T01:34:39.587Z,6.78
2023-07-08T01:35:01.305Z,7.72
2023-07-08T01:35:14.719Z,8.25
2023-07-08T01:35:28.896Z,6.97
2023-07-08T01:35:41.736Z,7.57
2023-07-08T01:35:54.478Z,8.32
2023-07-08T01:36:11.499Z,8.10
2023-07-08T01:36:26.384Z,7.72
2023-07-08T01:36:44.932Z,7.50
2023-07-08T01:37:01.375Z,6.53
2023-07-08T01:37:15.424Z,8.27
2023-07-08T01:37:35.344Z,9.00
2023-07-08T01:37:52.604Z,8.52
2023-07-08T01:38:09.879Z,8.70
2023-07-08T01:38:26.187Z,7.93
2023-07-08T01:38:40.564Z,8.55
2023-07-08T01:38:53.150Z,8.18
2023-07-08T01:39:05.746Z,7.28
2023-07-08T01:39:20.787Z,7.38
2023-07-08T01:39:34.430Z,8.10
2023-07-08T01:39:47.245Z,7.93
2023-07-08T01:40:16.305Z,7.72
2023-07-08T01:40:32.108Z,7.75
2023-07-08T01:40:51.001Z,7.93
2023-07-08T01:41:04.661Z,7.57
2023-07-08T01:41:18.048Z,7.10
2023-07-08T01:41:30.577Z,6.50
2023-07-08T01:41:43.078Z,7.10
2023-07-08T01:41:57.168Z,8.32
2023-07-08T01:42:09.669Z,9.38
2023-07-08T01:42:22.311Z,8.38
2023-07-08T01:42:35.051Z,7.95
2023-07-08T01:42:48.626Z,7.30
2023-07-08T01:43:02.201Z,7.32
2023-07-08T01:43:14.718Z,7.93
2023-07-08T01:43:27.264Z,6.88
2023-07-08T01:43:39.850Z,6.43
2023-07-08T01:43:52.712Z,6.95
2023-07-08T01:44:05.552Z,7.18
2023-07-08T01:44:30.381Z,7.03
2023-07-08T01:44:43.889Z,8.55
2023-07-08T01:44:56.498Z,8.70
2023-07-08T01:45:13.009Z,8.73
2023-07-08T01:45:27.862Z,7.68
2023-07-08T01:45:42.319Z,7.00
2023-07-08T01:45:55.933Z,6.70
2023-07-08T01:46:15.073Z,8.27
2023-07-08T01:46:29.287Z,8.68
2023-07-08T01:46:42.152Z,6.85
2023-07-08T01:46:58.230Z,7.20
2023-07-08T01:47:16.210Z,7.20
2023-07-08T01:47:28.886Z,6.97
2023-07-08T01:47:44.669Z,7.97
2023-07-08T01:48:02.174Z,7.93
2023-07-08T01:48:18.526Z,7.90
2023-07-08T01:48:36.152Z,8.30
2023-07-08T01:48:53.611Z,7.80
2023-07-08T01:49:06.255Z,7.25
2023-07-08T01:49:20.026Z,8.00
2023-07-08T01:49:34.805Z,8.43
2023-07-08T01:49:48.855Z,7.45
2023-07-08T01:50:01.507Z,7.28
2023-07-08T01:50:14.677Z,7.13
2023-07-08T01:50:29.836Z,7.50
2023-07-08T01:50:46.921Z,8.13
2023-07-08T01:51:03.106Z,8.15
2023-07-08T01:51:16.108Z,7.60
2023-07-08T01:51:29.202Z,7.05
2023-07-08T01:51:41.790Z,7.40
2023-07-08T01:51:54.671Z,8.13
2023-07-08T01:52:10.803Z,8.73
2023-07-08T01:52:23.405Z,9.10
2023-07-08T01:52:36.788Z,7.97
2023-07-08T01:52:51.388Z,7.53
2023-07-08T01:53:10.018Z,7.05
2023-07-08T01:53:29.107Z,7.47
2023-07-08T01:53:44.789Z,7.57
2023-07-08T01:53:57.324Z,8.10
2023-07-08T01:54:09.852Z,8.40
2023-07-08T01:54:22.557Z,7.85
2023-07-08T01:54:35.173Z,7.55
2023-07-08T01:54:56.005Z,7.53
2023-07-08T01:55:09.461Z,7.07
2023-07-08T01:55:24.426Z,6.10
2023-07-08T01:55:37.051Z,6.13
2023-07-08T01:55:50.610Z,6.78
2023-07-08T01:56:04.137Z,7.38
2023-07-08T01:56:17.020Z,7.18
2023-07-08T01:56:30.026Z,7.55
2023-07-08T01:56:42.649Z,8.27
2023-07-08T01:56:58.638Z,8.45
2023-07-08T01:57:11.195Z,7.30
2023-07-08T01:57:24.712Z,7.47
2023-07-08T01:57:37.365Z,7.35
2023-07-08T01:57:52.627Z,7.03
2023-07-08T01:58:05.190Z,6.88
2023-07-08T01:58:17.812Z,7.40
2023-07-08T01:58:30.493Z,8.15
2023-07-08T01:58:43.571Z,8.23
2023-07-08T01:58:56.102Z,8.05
2023-07-08T01:59:09.661Z,9.93
2023-07-08T01:59:22.333Z,10.00
2023-07-08T01:59:34.892Z,7.78
2023-07-08T01:59:48.661Z,8.05
2023-07-08T02:00:01.240Z,8.23
2023-07-08T02:00:14.704Z,9.70
2023-07-08T02:00:27.313Z,9.15
2023-07-08T02:00:39.997Z,9.05
2023-07-08T02:00:52.728Z,8.55
2023-07-08T02:01:08.037Z,8.45
2023-07-08T02:01:20.689Z,7.53
2023-07-08T02:01:33.360Z,7.70
2023-07-08T02:01:46.082Z,7.20
2023-07-08T02:01:59.116Z,6.82
2023-07-08T02:02:11.882Z,7.55
2023-07-08T02:02:25.347Z,7.95
2023-07-08T02:02:37.988Z,8.05
2023-07-08T02:02:51.909Z,7.43
2023-07-08T02:03:04.854Z,7.70
2023-07-08T02:03:18.538Z,7.60
2023-07-08T02:03:31.455Z,7.10
2023-07-08T02:03:45.313Z,7.75
2023-07-08T02:03:58.328Z,8.90
2023-07-08T02:04:10.851Z,8.93
2023-07-08T02:04:24.869Z,7.65
2023-07-08T02:04:37.409Z,6.65
2023-07-08T02:04:49.941Z,7.55
2023-07-08T02:05:03.506Z,7.55
2023-07-08T02:05:16.449Z,7.28
2023-07-08T02:05:29.094Z,7.32
2023-07-08T02:05:41.686Z,7.55
2023-07-08T02:05:54.575Z,7.53
2023-07-08T02:06:08.174Z,7.40
2023-07-08T02:06:20.765Z,6.70
2023-07-08T02:06:34.271Z,7.18
2023-07-08T02:06:52.469Z,8.90
2023-07-08T02:07:05.911Z,8.57
2023-07-08T02:07:19.838Z,7.75
2023-07-08T02:07:32.404Z,7.93
2023-07-08T02:07:44.943Z,7.35
2023-07-08T02:07:57.555Z,7.93
2023-07-08T02:08:10.565Z,7.60
2023-07-08T02:08:24.615Z,7.75
2023-07-08T02:08:37.164Z,7.22
2023-07-08T02:08:51.266Z,9.02
2023-07-08T02:09:04.151Z,9.98
2023-07-08T02:09:16.672Z,9.48
2023-07-08T02:09:29.324Z,9.00
2023-07-08T02:09:41.934Z,9.02
2023-07-08T02:09:54.508Z,8.55
2023-07-08T02:10:08.193Z,9.00
2023-07-08T02:10:20.735Z,8.45
2023-07-08T02:10:34.447Z,8.25
2023-07-08T02:10:51.653Z,7.75
2023-07-08T02:11:04.390Z,7.28
2023-07-08T02:11:16.913Z,7.35
2023-07-08T02:11:29.467Z,7.97
2023-07-08T02:11:42.010Z,9.20
2023-07-08T02:11:55.130Z,9.43
2023-07-08T02:12:08.336Z,8.30
2023-07-08T02:12:21.879Z,8.57
2023-07-08T02:12:34.395Z,8.77
2023-07-08T02:12:46.955Z,8.30
2023-07-08T02:12:59.527Z,8.35
2023-07-08T02:13:12.248Z,9.00
2023-07-08T02:13:25.996Z,8.57
2023-07-08T02:13:38.720Z,9.20
2023-07-08T02:13:51.507Z,10.18
2023-07-08T02:14:05.018Z,9.40
2023-07-08T02:14:18.724Z,7.97
2023-07-08T02:14:31.346Z,9.48
2023-07-08T02:14:43.992Z,9.02
2023-07-08T02:14:56.588Z,8.77
2023-07-08T02:15:11.090Z,8.38
2023-07-08T02:15:23.806Z,9.68
2023-07-08T02:15:36.474Z,9.18
2023-07-08T02:15:49.230Z,8.30
2023-07-08T02:16:03.100Z,8.18
2023-07-08T02:16:15.704Z,7.20
2023-07-08T02:16:28.326Z,6.93
2023-07-08T02:16:40.979Z,7.65
2023-07-08T02:16:53.626Z,8.77
2023-07-08T02:17:06.776Z,8.95
2023-07-08T02:17:19.357Z,9.23
2023-07-08T02:17:31.998Z,8.77
2023-07-08T02:17:44.661Z,8.68
2023-07-08T02:17:58.234Z,8.52
2023-07-08T02:18:10.832Z,7.97
2023-07-08T02:18:26.143Z,7.40
2023-07-08T02:18:38.808Z,8.85
2023-07-08T02:18:51.395Z,9.18
2023-07-08T02:19:04.020Z,8.38
2023-07-08T02:19:16.584Z,7.32
2023-07-08T02:19:30.131Z,7.07
2023-07-08T02:19:42.967Z,7.97
2023-07-08T02:19:55.522Z,8.13
2023-07-08T02:20:09.830Z,7.47
2023-07-08T02:20:23.008Z,7.63
2023-07-08T02:20:35.543Z,7.70
2023-07-08T02:20:48.636Z,8.05
2023-07-08T02:21:01.432Z,9.48
2023-07-08T02:21:14.268Z,10.32
2023-07-08T02:21:32.038Z,10.55
2023-07-08T02:21:44.619Z,9.13
2023-07-08T02:21:57.189Z,8.75
2023-07-08T02:22:09.742Z,8.48
2023-07-08T02:22:23.830Z,8.13
2023-07-08T02:22:37.694Z,8.60
2023-07-08T02:22:50.303Z,8.52
2023-07-08T02:23:03.967Z,8.38
2023-07-08T02:23:16.796Z,8.70
2023-07-08T02:23:29.405Z,9.73
2023-07-08T02:23:42.304Z,10.32
2023-07-08T02:23:55.744Z,9.70
2023-07-08T02:24:09.013Z,8.23
2023-07-08T02:24:23.300Z,7.70
2023-07-08T02:24:36.969Z,7.78
2023-07-08T02:24:49.622Z,8.35
2023-07-08T02:25:02.140Z,8.02
2023-07-08T02:25:14.731Z,7.80
2023-07-08T02:25:27.491Z,7.50
2023-07-08T02:25:40.050Z,7.10
2023-07-08T02:25:53.405Z,7.75
2023-07-08T02:26:07.009Z,7.40
2023-07-08T02:26:19.554Z,7.82
2023-07-08T02:26:33.203Z,8.93
2023-07-08T02:26:48.274Z,8.15
2023-07-08T02:27:00.939Z,7.03
2023-07-08T02:27:13.609Z,8.25
2023-07-08T02:27:26.228Z,10.50
2023-07-08T02:27:39.613Z,11.57
2023-07-08T02:27:53.562Z,9.48
2023-07-08T02:28:07.197Z,7.35
2023-07-08T02:28:19.904Z,8.15
2023-07-08T02:28:32.483Z,8.20
2023-07-08T02:28:45.021Z,8.30
2023-07-08T02:28:57.560Z,13.27
2023-07-08T02:29:10.137Z,13.60
2023-07-08T02:29:22.930Z,11.50
2023-07-08T02:29:36.510Z,8.23
2023-07-08T02:29:49.108Z,7.75
2023-07-08T02:30:01.840Z,7.18
2023-07-08T02:30:14.418Z,7.47
2023-07-08T02:30:27.709Z,7.72
2023-07-08T02:30:42.082Z,7.93
2023-07-08T02:30:54.614Z,8.52
2023-07-08T02:31:08.035Z,9.55
2023-07-08T02:31:22.226Z,8.57
2023-07-08T02:31:35.242Z,7.22
2023-07-08T02:31:48.574Z,7.35
2023-07-08T02:32:01.268Z,8.13
2023-07-08T02:32:13.834Z,8.15
2023-07-08T02:32:26.455Z,9.52
2023-07-08T02:32:40.237Z,9.80
2023-07-08T02:32:58.749Z,8.48
2023-07-08T02:33:11.446Z,9.88
2023-07-08T02:33:33.726Z,8.18
2023-07-08T02:33:46.414Z,7.00
2023-07-08T02:33:59.004Z,7.63
2023-07-08T02:34:11.944Z,8.35
2023-07-08T02:34:24.713Z,9.00
2023-07-08T02:34:37.374Z,9.70
2023-07-08T02:34:53.241Z,8.48
2023-07-08T02:35:06.793Z,8.45
2023-07-08T02:35:19.497Z,7.50
2023-07-08T02:35:32.356Z,6.93
2023-07-08T02:35:45.669Z,7.18
2023-07-08T02:35:58.233Z,7.57
2023-07-08T02:36:10.796Z,8.40
2023-07-08T02:36:23.477Z,8.65
2023-07-08T02:36:37.807Z,9.30
2023-07-08T02:36:50.369Z,9.07
2023-07-08T02:37:03.054Z,7.72
2023-07-08T02:37:16.178Z,7.63
2023-07-08T02:37:30.132Z,7.82
2023-07-08T02:37:42.718Z,7.43
2023-07-08T02:37:55.790Z,7.28
2023-07-08T02:38:08.486Z,7.45
2023-07-08T02:38:22.017Z,7.13
2023-07-08T02:38:34.643Z,6.88
2023-07-08T02:38:47.280Z,6.90
2023-07-08T02:38:59.812Z,7.38
2023-07-08T02:39:12.642Z,7.68
2023-07-08T02:39:25.438Z,8.98
2023-07-08T02:39:37.992Z,8.43
2023-07-08T02:39:50.544Z,8.45
2023-07-08T02:40:03.446Z,8.40
2023-07-08T02:40:17.200Z,8.25
2023-07-08T02:40:30.018Z,8.02
2023-07-08T02:40:44.298Z,8.00
2023-07-08T02:40:57.164Z,7.43
2023-07-08T02:41:09.895Z,7.30
2023-07-08T02:41:22.502Z,7.25
2023-07-08T02:41:35.034Z,7.30
2023-07-08T02:41:47.607Z,8.60
2023-07-08T02:42:02.153Z,9.02
2023-07-08T02:42:14.736Z,9.75
2023-07-08T02:42:27.553Z,9.27
2023-07-08T02:42:40.093Z,8.77
2023-07-08T02:42:52.736Z,7.82
2023-07-08T02:43:05.398Z,7.90
2023-07-08T02:43:17.978Z,7.22
2023-07-08T02:43:30.778Z,9.68
2023-07-08T02:43:44.374Z,10.32
2023-07-08T02:43:56.976Z,8.93
2023-07-08T02:44:09.558Z,7.97
2023-07-08T02:44:22.090Z,7.50
2023-07-08T02:44:34.622Z,7.55
2023-07-08T02:44:47.229Z,8.05
2023-07-08T02:44:59.761Z,8.45
2023-07-08T02:45:13.369Z,9.45
2023-07-08T02:45:25.922Z,9.90
2023-07-08T02:45:38.545Z,8.68
2023-07-08T02:45:52.482Z,7.88
2023-07-08T02:46:05.216Z,7.82
2023-07-08T02:46:18.997Z,8.30
2023-07-08T02:46:31.822Z,8.88
2023-07-08T02:46:44.454Z,8.20
2023-07-08T02:46:57.176Z,8.10
2023-07-08T02:47:09.758Z,7.88
2023-07-08T02:47:23.692Z,7.93
2023-07-08T02:47:36.266Z,8.05
2023-07-08T02:47:48.844Z,8.32
2023-07-08T02:48:01.418Z,8.52
2023-07-08T02:48:14.011Z,9.02
2023-07-08T02:48:26.604Z,9.23
2023-07-08T02:48:40.169Z,8.95
2023-07-08T02:48:52.889Z,7.88
2023-07-08T02:49:05.527Z,9.13
2023-07-08T02:49:18.136Z,8.68
2023-07-08T02:49:31.283Z,8.68
2023-07-08T02:49:43.970Z,9.05
2023-07-08T02:49:56.501Z,8.93
2023-07-08T02:50:09.956Z,9.77
2023-07-08T02:50:22.526Z,9.95
2023-07-08T02:50:36.046Z,8.18
2023-07-08T02:50:48.661Z,7.43
2023-07-08T02:51:01.944Z,8.43
2023-07-08T02:51:15.032Z,9.75
2023-07-08T02:51:27.600Z,8.70
2023-07-08T02:51:40.157Z,8.50
2023-07-08T02:51:52.879Z,7.95
2023-07-08T02:52:05.792Z,8.43
2023-07-08T02:52:19.356Z,9.07
2023-07-08T02:52:33.252Z,8.50
2023-07-08T02:52:46.032Z,7.70
2023-07-08T02:52:58.573Z,6.80
2023-07-08T02:53:11.120Z,8.10
2023-07-08T02:53:23.733Z,7.70
2023-07-08T02:53:36.424Z,7.50
2023-07-08T02:53:51.156Z,7.65
2023-07-08T02:54:03.761Z,8.38
2023-07-08T02:54:16.314Z,8.13
2023-07-08T02:54:29.902Z,7.53
2023-07-08T02:54:42.526Z,6.75
2023-07-08T02:54:55.117Z,6.88
2023-07-08T02:55:08.752Z,7.57
2023-07-08T02:55:21.373Z,8.00
2023-07-08T02:55:33.919Z,7.50
2023-07-08T02:55:46.488Z,6.85
2023-07-08T02:55:59.186Z,9.68
2023-07-08T02:56:11.753Z,10.52
2023-07-08T02:56:27.606Z,7.88
2023-07-08T02:56:40.178Z,7.38
2023-07-08T02:56:52.813Z,8.02
2023-07-08T02:57:05.649Z,8.55
2023-07-08T02:57:18.229Z,8.18
2023-07-08T02:57:31.043Z,9.30
2023-07-08T02:57:44.580Z,8.68
2023-07-08T02:57:57.120Z,8.13
2023-07-08T02:58:10.436Z,8.10
2023-07-08T02:58:23.096Z,8.98
2023-07-08T02:58:36.404Z,9.80
2023-07-08T02:58:48.989Z,10.02
2023-07-08T02:59:01.776Z,8.18
2023-07-08T02:59:14.351Z,8.02
2023-07-08T02:59:29.408Z,7.25
2023-07-08T02:59:41.950Z,6.72
2023-07-08T02:59:54.570Z,6.75
2023-07-08T03:00:08.291Z,7.38
2023-07-08T03:00:21.077Z,7.68
2023-07-08T03:00:34.543Z,8.77
2023-07-08T03:00:47.116Z,8.88
2023-07-08T03:01:02.281Z,7.65
2023-07-08T03:01:18.767Z,7.22
2023-07-08T03:01:32.042Z,7.55
2023-07-08T03:01:48.077Z,7.85
2023-07-08T03:02:00.860Z,7.43
2023-07-08T03:02:13.402Z,7.10
2023-07-08T03:02:27.576Z,7.80
2023-07-08T03:02:40.215Z,8.38
2023-07-08T03:02:52.850Z,7.82
2023-07-08T03:03:06.894Z,7.95
2023-07-08T03:03:19.614Z,8.30
2023-07-08T03:03:32.219Z,7.38
2023-07-08T03:03:44.971Z,7.05
2023-07-08T03:03:59.461Z,7.22
2023-07-08T03:04:14.208Z,7.43
2023-07-08T03:04:26.969Z,7.45
2023-07-08T03:04:41.167Z,7.22
2023-07-08T03:04:55.365Z,7.72
2023-07-08T03:05:08.962Z,7.32
2023-07-08T03:05:21.505Z,7.72
2023-07-08T03:05:35.085Z,7.70
2023-07-08T03:05:55.411Z,6.72
2023-07-08T03:06:08.943Z,7.40
2023-07-08T03:06:22.690Z,7.50
2023-07-08T03:06:35.268Z,6.68
2023-07-08T03:06:47.798Z,6.93
2023-07-08T03:07:01.292Z,7.40
2023-07-08T03:07:15.080Z,8.32
2023-07-08T03:07:27.639Z,9.00
2023-07-08T03:07:41.521Z,8.15
2023-07-08T03:07:55.033Z,8.10
2023-07-08T03:08:07.575Z,8.32
2023-07-08T03:08:20.056Z,8.60
2023-07-08T03:08:32.625Z,7.82
2023-07-08T03:08:45.163Z,7.15
2023-07-08T03:08:57.703Z,6.68
2023-07-08T03:09:11.270Z,7.15
2023-07-08T03:09:24.856Z,7.68
2023-07-08T03:09:37.446Z,8.15
2023-07-08T03:09:50.106Z,8.00
2023-07-08T03:10:02.642Z,7.47
2023-07-08T03:10:15.319Z,7.25